NY28 weather

Anthonson Airport
Jordan, New York, United States

Public forecast

Using degrees Fahrenheit for public forecast. Weather courtesy of forecast.io.

METAR (pilot weather report)

Closest report is Syracuse Hancock International Airport, 13.4 nm (24.9 km) E. Retrieved 2019/05/20 18:54 UTC (11 minutes ago):

KSYR 201854Z 28016G21KT 10SM BKN035 OVC050 21/14 A2974 RMK AO2 WSHFT 1756 SLP066 T02110139

TAF (pilot weather forecast)

Closest forecast is Syracuse Hancock International Airport, 13.4 nm (24.9 km) E. Retrieved 2019/05/20 18:27 UTC (38 minutes ago):

TAF KSYR 201725Z 2018/2118 27018G25KT P6SM BKN050 FM210200 27017G24KT P6SM OVC025 FM211100 29012KT P6SM SCT040